APRS [IN62JR], 0 Stunde(n), DL3EL [07:27:56, 0s].
EA1IOK 42.34.38N 007.32.84WIN62FN 32.703km 238°WSW05:12:16ZYaesu DMO with EA7EE Sofware(3EA1IOK-6)
EA1GUI 42.31.80N 007.30.25WIN62FM 32.815km 228°SW05:00:48ZMMDVM MMDVM HS Hat 430.4000/430.4000 CC1
EA1HBW 42.23.99N 007.05.99WIN62KJ 37.659km 166°SSE05:01:04ZMMDVM MMDVM HS Dual Hat 438.6000/431.0000 CC1
27D00 43.00.64N 007.33.47WIN63FA 42.336km 318°NW05:01:26Z27-D-00 Protección Civil REMER / Subdelegación del Gobierno en Lugo
LEBO 43.01.62N 006.53.05WIN63NA 42.356km 38°NE05:00:04ZHelipuerto de Ibias: LEAS 240400Z VRB03KT CAVOK 10/08 Q1021 NOSIG=
EA1DLB 43.00.78N 007.34.07WIN63FA 43.078km 317°NW05:00:37Z440 Voice 431.07500MHz +0.0000MHz(3EA1DLB-B)
MMDVM MMDVM HS Dual Hat 438.2750/430.6750 CC1(2EA1DLB)
EA1GUJ 43.00.67N 007.34.26WIN63FA 43.092km 317°NW05:02:02ZMMDVM DMO 438.0250/438.0250 CC1
EA1RCP 42.19.33N 007.16.24WIN62IH 45.542km 186°S05:24:04ZWind 257°/000kn, Böen bis 000kn, Temp 5.56c, Regen 0.0mm, letzte 24h 0.0mm, seit 0h 0.0mm, Baro 1021.7h, Hum: 86%(3EA1RCP-WX)

aprs.pl 5.0.011w DL3EL © 2006-2021 [1045574]